createdAt,value
2022-07-26T00:01:22.141Z,100961.41
2022-07-26T00:03:52.135Z,100963.13
2022-07-26T00:06:20.059Z,100968.06
2022-07-26T00:08:48.035Z,100974.50
2022-07-26T00:11:15.978Z,100966.13
2022-07-26T00:13:43.875Z,100965.47
2022-07-26T00:16:13.381Z,100968.06
2022-07-26T00:18:41.468Z,100965.94
2022-07-26T00:21:09.531Z,100966.13
2022-07-26T00:23:39.623Z,100959.03
2022-07-26T00:26:07.483Z,100965.69
2022-07-26T00:28:35.393Z,100966.09
2022-07-26T00:31:04.541Z,100961.81
2022-07-26T00:33:34.087Z,100961.81
2022-07-26T00:36:02.153Z,100956.03
2022-07-26T00:38:30.040Z,100951.91
2022-07-26T00:40:58.403Z,100956.03
2022-07-26T00:43:26.195Z,100962.03
2022-07-26T00:45:54.076Z,100960.50
2022-07-26T00:48:21.928Z,100956.22
2022-07-26T00:50:51.459Z,100959.84
2022-07-26T00:53:20.625Z,100957.50
2022-07-26T00:55:49.480Z,100956.19
2022-07-26T00:58:17.917Z,100961.16
2022-07-26T01:00:46.420Z,100961.56
2022-07-26T01:03:14.487Z,100966.50
2022-07-26T01:05:43.647Z,100960.25
2022-07-26T01:08:12.898Z,100954.91
2022-07-26T01:10:41.004Z,100959.41
2022-07-26T01:13:09.476Z,100955.97
2022-07-26T01:15:37.464Z,100956.19
2022-07-26T01:18:05.447Z,100948.22
2022-07-26T01:20:33.305Z,100957.00
2022-07-26T01:23:02.928Z,100957.00
2022-07-26T01:25:32.176Z,100958.53
2022-07-26T01:28:00.277Z,100959.97
2022-07-26T01:30:28.399Z,100960.19
2022-07-26T01:32:56.271Z,100956.75
2022-07-26T01:35:24.183Z,100958.88
2022-07-26T01:37:57.220Z,100957.38
2022-07-26T01:40:26.584Z,100961.88
2022-07-26T01:42:54.485Z,100957.81
2022-07-26T01:45:22.440Z,100959.72
2022-07-26T01:47:51.026Z,100957.16
2022-07-26T01:50:19.294Z,100955.41
2022-07-26T01:52:47.166Z,100955.63
2022-07-26T01:55:15.051Z,100959.47
2022-07-26T01:57:45.962Z,100964.66
2022-07-26T02:00:15.029Z,100965.06
2022-07-26T02:02:42.930Z,100970.88
2022-07-26T02:05:11.244Z,100967.22
2022-07-26T02:07:42.827Z,100973.41
2022-07-26T02:10:14.514Z,100974.72
2022-07-26T02:12:44.314Z,100976.84
2022-07-26T02:15:13.522Z,100974.06
2022-07-26T02:17:41.582Z,100972.53
2022-07-26T02:20:10.757Z,100973.59
2022-07-26T02:22:38.594Z,100970.59
2022-07-26T02:25:07.356Z,100973.59
2022-07-26T02:27:35.228Z,100975.09
2022-07-26T02:30:05.028Z,100968.66
2022-07-26T02:32:32.970Z,100970.31
2022-07-26T02:35:00.894Z,100972.69
2022-07-26T02:37:28.817Z,100972.03
2022-07-26T02:39:56.682Z,100975.25
2022-07-26T02:42:24.531Z,100969.00
2022-07-26T02:44:54.017Z,100975.84
2022-07-26T02:47:23.263Z,100978.63
2022-07-26T02:49:51.197Z,100980.75
2022-07-26T02:52:19.186Z,100985.47
2022-07-26T02:54:47.050Z,100983.97
2022-07-26T02:57:14.887Z,100982.91
2022-07-26T02:59:42.819Z,100981.00
2022-07-26T03:02:10.635Z,100987.63
2022-07-26T03:04:39.886Z,100990.19
2022-07-26T03:07:07.856Z,100990.59
2022-07-26T03:09:35.666Z,100995.28
2022-07-26T03:12:03.906Z,100996.34
2022-07-26T03:14:31.756Z,100991.84
2022-07-26T03:16:59.556Z,100990.97
2022-07-26T03:19:27.497Z,100992.69
2022-07-26T03:21:56.716Z,100992.69
2022-07-26T03:24:24.584Z,100997.59
2022-07-26T03:26:52.626Z,101004.25
2022-07-26T03:29:20.611Z,101005.34
2022-07-26T03:31:48.454Z,100988.81
2022-07-26T03:34:16.355Z,100998.03
2022-07-26T03:36:44.342Z,101005.72
2022-07-26T03:39:13.649Z,101010.25
2022-07-26T03:41:41.730Z,101005.28
2022-07-26T03:44:10.024Z,101023.91
2022-07-26T03:46:38.184Z,101023.03
2022-07-26T03:49:06.095Z,101020.50
2022-07-26T03:51:34.271Z,101021.75
2022-07-26T03:54:02.157Z,101022.81
2022-07-26T03:56:31.944Z,101026.47
2022-07-26T03:59:01.634Z,101026.66
2022-07-26T04:01:30.246Z,101024.06
2022-07-26T04:03:58.280Z,101020.84
2022-07-26T04:06:26.129Z,101025.75
2022-07-26T04:08:54.059Z,101030.66
2022-07-26T04:11:22.121Z,101031.94
2022-07-26T04:13:55.594Z,101030.19
2022-07-26T04:16:23.592Z,101038.53
2022-07-26T04:18:51.802Z,101034.66
2022-07-26T04:21:19.752Z,101041.09
2022-07-26T04:23:51.125Z,101030.19
2022-07-26T04:26:19.909Z,101033.34
2022-07-26T04:28:47.946Z,101031.44
2022-07-26T04:31:17.541Z,101033.16
2022-07-26T04:33:45.489Z,101040.84
2022-07-26T04:36:13.458Z,101040.19
2022-07-26T04:38:41.325Z,101040.38
2022-07-26T04:41:09.209Z,101047.03
2022-07-26T04:43:37.341Z,101047.84
2022-07-26T04:46:05.326Z,101039.75
2022-07-26T04:48:34.691Z,101050.44
2022-07-26T04:51:02.865Z,101048.94
2022-07-26T04:53:30.753Z,101054.72
2022-07-26T04:55:58.649Z,101055.78
2022-07-26T04:58:26.522Z,101059.63
2022-07-26T05:01:09.500Z,101059.81
2022-07-26T05:03:39.868Z,101067.09
2022-07-26T05:06:08.354Z,101059.38
2022-07-26T05:08:36.258Z,101051.22
2022-07-26T05:11:04.697Z,101056.97
2022-07-26T05:13:32.924Z,101052.47
2022-07-26T05:16:01.697Z,101060.81
2022-07-26T05:18:31.881Z,101061.69
2022-07-26T05:21:15.562Z,101066.19
2022-07-26T05:23:44.015Z,101060.81
2022-07-26T05:26:12.275Z,101062.53
2022-07-26T05:28:40.556Z,101058.03
2022-07-26T05:31:08.962Z,101059.75
2022-07-26T05:33:36.892Z,101053.13
2022-07-26T05:36:05.403Z,101052.06
2022-07-26T05:38:34.908Z,101057.22
2022-07-26T05:41:03.053Z,101054.66
2022-07-26T05:43:40.942Z,101054.44
2022-07-26T05:46:10.790Z,101064.50
2022-07-26T05:48:38.989Z,101063.47
2022-07-26T05:51:07.156Z,101061.53
2022-07-26T05:53:36.448Z,101055.78
2022-07-26T05:56:04.742Z,101065.19
2022-07-26T05:58:32.628Z,101068.84
2022-07-26T06:01:01.011Z,101062.41
2022-07-26T06:03:30.073Z,101064.31
2022-07-26T06:05:59.582Z,101067.78
2022-07-26T06:08:28.226Z,101067.78
2022-07-26T06:10:57.844Z,101064.78
2022-07-26T06:13:25.881Z,101063.06
2022-07-26T06:15:53.863Z,101069.50
2022-07-26T06:18:22.110Z,101071.41
2022-07-26T06:20:51.448Z,101072.28
2022-07-26T06:23:33.554Z,101079.59
2022-07-26T06:26:04.971Z,101085.78
2022-07-26T06:28:33.095Z,101080.44
2022-07-26T06:31:00.987Z,101083.22
2022-07-26T06:33:28.866Z,101088.56
2022-07-26T06:35:56.866Z,101093.09
2022-07-26T06:38:24.945Z,101094.81
2022-07-26T06:40:52.805Z,101094.81
2022-07-26T06:43:22.271Z,101105.56
2022-07-26T06:45:50.632Z,101100.38
2022-07-26T06:48:18.657Z,101107.69
2022-07-26T06:50:46.640Z,101114.09
2022-07-26T06:53:14.472Z,101109.41
2022-07-26T06:55:42.829Z,101108.53
2022-07-26T06:58:10.924Z,101111.31
2022-07-26T07:00:40.260Z,101108.34
2022-07-26T07:03:08.265Z,101112.19
2022-07-26T07:05:36.222Z,101111.31
2022-07-26T07:08:04.911Z,101110.25
2022-07-26T07:10:35.220Z,101113.91
2022-07-26T07:13:03.999Z,101117.34
2022-07-26T07:15:31.932Z,101113.50
2022-07-26T07:18:01.297Z,101117.63
2022-07-26T07:20:29.485Z,101118.69
2022-07-26T07:22:57.542Z,101126.63
2022-07-26T07:25:30.882Z,101125.59
2022-07-26T07:27:59.557Z,101130.72
2022-07-26T07:30:28.282Z,101134.00
2022-07-26T07:32:56.989Z,101134.44
2022-07-26T07:35:31.684Z,101139.41
2022-07-26T07:38:00.563Z,101142.00
2022-07-26T07:40:28.435Z,101142.44
2022-07-26T07:42:58.341Z,101144.84
2022-07-26T07:45:26.326Z,101143.56
2022-07-26T07:47:54.236Z,101148.75
2022-07-26T07:50:22.189Z,101140.19
2022-07-26T07:52:58.025Z,101151.59
2022-07-26T07:55:46.246Z,101150.09
2022-07-26T07:58:15.694Z,101151.59
2022-07-26T08:00:45.635Z,101142.84
2022-07-26T08:03:17.934Z,101147.16
2022-07-26T08:05:49.310Z,101151.66
2022-07-26T08:08:22.594Z,101152.78
2022-07-26T08:10:52.924Z,101153.66
2022-07-26T08:13:22.070Z,101153.44
2022-07-26T08:15:50.965Z,101151.09
2022-07-26T08:18:21.643Z,101145.13
2022-07-26T08:20:51.272Z,101142.78
2022-07-26T08:23:21.977Z,101155.31
2022-07-26T08:26:00.682Z,101156.63
2022-07-26T08:28:46.723Z,101160.50
2022-07-26T08:31:15.229Z,101161.63
2022-07-26T08:33:46.294Z,101155.19
2022-07-26T08:36:16.052Z,101160.59
2022-07-26T08:38:47.741Z,101160.44
2022-07-26T08:41:16.579Z,101163.22
2022-07-26T08:43:51.169Z,101154.25
2022-07-26T08:46:25.347Z,101163.72
2022-07-26T08:48:54.908Z,101164.19
2022-07-26T08:51:25.039Z,101163.16
2022-07-26T08:54:04.115Z,101170.69
2022-07-26T08:56:33.287Z,101171.13
2022-07-26T08:59:05.192Z,101175.44
2022-07-26T09:01:33.438Z,101165.78
2022-07-26T09:04:30.844Z,101172.72
2022-07-26T09:07:03.301Z,101168.03
2022-07-26T09:09:33.808Z,101163.34
2022-07-26T09:12:15.729Z,101157.13
2022-07-26T09:14:46.610Z,101158.41
2022-07-26T09:17:16.437Z,101161.00
2022-07-26T09:19:44.516Z,101157.59
2022-07-26T09:22:14.676Z,101158.28
2022-07-26T09:24:45.692Z,101161.94
2022-07-26T09:27:16.926Z,101163.22
2022-07-26T09:29:49.645Z,101163.63
2022-07-26T09:32:19.928Z,101165.78
2022-07-26T09:34:52.978Z,101164.72
2022-07-26T09:37:34.929Z,101173.75
2022-07-26T09:40:07.256Z,101173.72
2022-07-26T09:42:35.405Z,101169.88
2022-07-26T09:45:04.693Z,101171.97
2022-07-26T09:47:40.364Z,101176.06
2022-07-26T09:50:13.301Z,101175.63
2022-07-26T09:52:42.240Z,101166.59
2022-07-26T09:55:13.316Z,101171.50
2022-07-26T09:57:41.452Z,101178.63
2022-07-26T10:00:10.745Z,101179.28
2022-07-26T10:02:38.896Z,101176.91
2022-07-26T10:05:07.809Z,101183.59
2022-07-26T10:07:36.224Z,101182.94
2022-07-26T10:10:11.364Z,101188.53
2022-07-26T10:12:44.174Z,101192.00
2022-07-26T10:15:40.717Z,101190.94
2022-07-26T10:18:10.161Z,101195.91
2022-07-26T10:20:51.249Z,101197.41
2022-07-26T10:23:36.694Z,101189.25
2022-07-26T10:26:06.203Z,101191.16
2022-07-26T10:28:37.803Z,101190.72
2022-07-26T10:31:30.482Z,101190.34
2022-07-26T10:34:01.390Z,101188.81
2022-07-26T10:36:33.483Z,101187.97
2022-07-26T10:39:05.272Z,101193.97
2022-07-26T10:41:36.247Z,101187.50
2022-07-26T10:44:25.402Z,101189.03
2022-07-26T10:47:18.381Z,101179.34
2022-07-26T10:49:57.640Z,101194.59
2022-07-26T10:52:27.823Z,101199.34
2022-07-26T10:55:13.457Z,101184.31
2022-07-26T10:57:43.620Z,101187.75
2022-07-26T11:00:20.121Z,101195.22
2022-07-26T11:02:55.697Z,101194.78
2022-07-26T11:05:28.849Z,101190.22
2022-07-26T11:08:01.352Z,101192.38
2022-07-26T11:10:32.748Z,101211.75
2022-07-26T11:13:19.453Z,101218.63
2022-07-26T11:15:51.332Z,101229.16
2022-07-26T11:18:25.113Z,101230.88
2022-07-26T11:20:55.375Z,101234.75
2022-07-26T11:23:32.398Z,101235.84
2022-07-26T11:26:12.225Z,101240.19
2022-07-26T11:28:55.609Z,101242.34
2022-07-26T11:31:50.769Z,101247.47
2022-07-26T11:34:22.089Z,101244.25
2022-07-26T11:36:52.123Z,101250.50
2022-07-26T11:39:23.933Z,101237.81
2022-07-26T11:41:57.405Z,101238.69
2022-07-26T11:44:26.348Z,101236.09
2022-07-26T11:46:57.830Z,101238.28
2022-07-26T11:50:00.500Z,101238.06
2022-07-26T11:52:25.053Z,101237.44
2022-07-26T11:54:54.141Z,101233.31
2022-07-26T11:57:22.272Z,101237.63
2022-07-26T11:59:51.539Z,101238.06
2022-07-26T12:02:23.265Z,101238.03
2022-07-26T12:05:11.439Z,101232.66
2022-07-26T12:07:39.744Z,101236.28
2022-07-26T12:10:08.661Z,101237.13
2022-07-26T12:12:36.902Z,101232.22
2022-07-26T12:15:06.914Z,101234.13
2022-07-26T12:17:36.624Z,101233.22
2022-07-26T12:20:15.719Z,101240.56
2022-07-26T12:22:54.491Z,101243.31
2022-07-26T12:25:26.988Z,101246.72
2022-07-26T12:27:55.538Z,101252.50
2022-07-26T12:30:24.163Z,101237.59
2022-07-26T12:32:55.248Z,101241.00
2022-07-26T12:35:32.314Z,101245.13
2022-07-26T12:38:01.026Z,101246.00
2022-07-26T12:40:31.171Z,101238.84
2022-07-26T12:43:02.801Z,101236.69
2022-07-26T12:45:33.001Z,101236.03
2022-07-26T12:48:03.755Z,101234.75
2022-07-26T12:50:32.895Z,101238.84
2022-07-26T12:53:03.184Z,101240.78
2022-07-26T12:55:31.851Z,101239.31
2022-07-26T12:58:00.755Z,101231.13
2022-07-26T13:00:29.905Z,101227.00
2022-07-26T13:02:58.370Z,101232.00
2022-07-26T13:05:27.744Z,101225.28
2022-07-26T13:07:55.958Z,101230.47
2022-07-26T13:10:39.636Z,101224.88
2022-07-26T13:13:07.792Z,101218.63
2022-07-26T13:15:37.160Z,101224.22
2022-07-26T13:18:08.102Z,101225.09
2022-07-26T13:20:39.294Z,101221.44
2022-07-26T13:23:11.542Z,101227.47
2022-07-26T13:25:41.204Z,101220.19
2022-07-26T13:28:09.898Z,101220.19
2022-07-26T13:30:39.412Z,101224.91
2022-07-26T13:33:08.258Z,101225.13
2022-07-26T13:35:39.339Z,101212.66
2022-07-26T13:38:09.576Z,101214.19
2022-07-26T13:40:37.601Z,101214.63
2022-07-26T13:43:06.045Z,101223.50
2022-07-26T13:45:34.193Z,101211.22
2022-07-26T13:48:02.305Z,101215.56
2022-07-26T13:50:30.317Z,101220.72
2022-07-26T13:52:59.858Z,101226.53
2022-07-26T13:55:27.821Z,101217.31
2022-07-26T13:57:57.864Z,101232.00
2022-07-26T14:00:27.468Z,101233.47
2022-07-26T14:02:56.407Z,101231.56
2022-07-26T14:05:25.137Z,101236.97
2022-07-26T14:07:53.866Z,101239.53
2022-07-26T14:10:24.033Z,101241.06
2022-07-26T14:12:53.463Z,101232.91
2022-07-26T14:15:23.389Z,101247.75
2022-07-26T14:17:52.446Z,101244.09
2022-07-26T14:20:21.010Z,101257.91
2022-07-26T14:22:53.209Z,101254.91
2022-07-26T14:25:21.354Z,101267.97
2022-07-26T14:27:51.124Z,101254.84
2022-07-26T14:30:19.716Z,101261.72
2022-07-26T14:32:48.168Z,101261.53
2022-07-26T14:35:17.556Z,101266.66
2022-07-26T14:37:46.263Z,101275.50
2022-07-26T14:40:16.641Z,101276.38
2022-07-26T14:42:45.250Z,101278.50
2022-07-26T14:45:15.538Z,101273.56
2022-07-26T14:47:44.238Z,101277.44
2022-07-26T14:50:13.537Z,101284.75
2022-07-26T14:52:42.990Z,101284.56
2022-07-26T14:55:11.787Z,101285.19
2022-07-26T14:57:40.670Z,101283.25
2022-07-26T15:00:11.348Z,101285.63
2022-07-26T15:02:42.319Z,101282.41
2022-07-26T15:05:11.219Z,101292.72
2022-07-26T15:07:39.741Z,101289.06
2022-07-26T15:10:09.696Z,101288.88
2022-07-26T15:12:37.793Z,101295.75
2022-07-26T15:15:07.431Z,101297.25
2022-07-26T15:17:36.182Z,101289.06
2022-07-26T15:20:06.920Z,101288.88
2022-07-26T15:22:35.560Z,101287.34
2022-07-26T15:25:03.520Z,101290.16
2022-07-26T15:27:31.463Z,101284.75
2022-07-26T15:30:04.147Z,101291.22
2022-07-26T15:32:35.310Z,101286.69
2022-07-26T15:35:03.376Z,101287.78
2022-07-26T15:37:32.927Z,101280.03
2022-07-26T15:40:01.464Z,101293.34
2022-07-26T15:42:32.047Z,101283.69
2022-07-26T15:47:54.813Z,101277.44
2022-07-26T15:50:26.310Z,101297.03
2022-07-26T15:52:55.834Z,101294.88
2022-07-26T15:55:23.862Z,101289.69
2022-07-26T15:57:51.924Z,101300.88
2022-07-26T16:00:20.352Z,101297.22
2022-07-26T16:02:48.360Z,101295.50
2022-07-26T16:05:17.258Z,101296.59
2022-07-26T16:07:46.235Z,101291.22
2022-07-26T16:10:16.327Z,101292.94
2022-07-26T16:12:44.429Z,101275.94
2022-07-26T16:15:13.163Z,101291.63
2022-07-26T16:17:41.291Z,101286.25
2022-07-26T16:20:10.035Z,101298.28
2022-07-26T16:22:41.030Z,101286.25
2022-07-26T16:25:12.780Z,101285.84
2022-07-26T16:27:43.838Z,101294.84
2022-07-26T16:30:13.343Z,101293.16
2022-07-26T16:32:41.559Z,101293.56
2022-07-26T16:35:10.580Z,101286.25
2022-07-26T16:37:38.620Z,101283.88
2022-07-26T16:40:08.601Z,101285.81
2022-07-26T16:42:36.705Z,101284.50
2022-07-26T16:45:06.786Z,101285.38
2022-07-26T16:47:34.851Z,101290.75
2022-07-26T16:50:03.002Z,101287.31
2022-07-26T16:52:30.933Z,101278.47
2022-07-26T16:54:59.082Z,101288.16
2022-07-26T16:57:27.933Z,101285.56
2022-07-26T16:59:55.815Z,101287.06
2022-07-26T17:02:25.304Z,101279.69
2022-07-26T17:04:55.850Z,101284.63
2022-07-26T17:07:25.780Z,101279.22
2022-07-26T17:09:55.172Z,101276.22
2022-07-26T17:12:23.357Z,101276.19
2022-07-26T17:14:51.681Z,101277.88
2022-07-26T17:17:19.811Z,101286.91
2022-07-26T17:19:49.313Z,101285.38
2022-07-26T17:22:18.014Z,101292.66
2022-07-26T17:24:46.113Z,101298.66
2022-07-26T17:27:14.136Z,101294.56
2022-07-26T17:29:42.124Z,101290.25
2022-07-26T17:32:10.739Z,101289.81
2022-07-26T17:34:39.567Z,101296.63
2022-07-26T17:37:10.185Z,101304.16
2022-07-26T17:39:50.749Z,101302.81
2022-07-26T17:42:21.657Z,101303.44
2022-07-26T17:44:49.824Z,101310.97
2022-07-26T17:47:28.903Z,101310.28
2022-07-26T17:50:14.394Z,101309.66
2022-07-26T17:52:50.347Z,101307.06
2022-07-26T17:55:19.659Z,101312.00
2022-07-26T17:57:49.708Z,101317.78
2022-07-26T18:00:19.806Z,101317.97
2022-07-26T18:02:47.805Z,101318.41
2022-07-26T18:05:18.257Z,101313.88
2022-07-26T18:07:46.606Z,101320.72
2022-07-26T18:10:16.031Z,101323.50
2022-07-26T18:12:44.037Z,101313.84
2022-07-26T18:15:12.721Z,101314.91
2022-07-26T18:17:40.875Z,101312.31
2022-07-26T18:20:10.019Z,101306.72
2022-07-26T18:22:38.482Z,101315.50
2022-07-26T18:25:07.663Z,101319.16
2022-07-26T18:27:37.151Z,101314.63
2022-07-26T18:30:06.435Z,101308.63
2022-07-26T18:32:35.217Z,101315.47
2022-07-26T18:35:03.370Z,101315.66
2022-07-26T18:37:31.728Z,101315.88
2022-07-26T18:40:00.973Z,101319.94
2022-07-26T18:42:29.038Z,101316.66
2022-07-26T18:44:58.383Z,101321.38
2022-07-26T18:47:26.505Z,101322.00
2022-07-26T18:49:54.583Z,101326.91
2022-07-26T18:52:32.218Z,101325.34
2022-07-26T18:55:02.574Z,101327.50
2022-07-26T18:57:30.589Z,101327.03
2022-07-26T18:59:59.948Z,101323.38
2022-07-26T19:02:27.935Z,101325.91
2022-07-26T19:04:56.328Z,101322.47
2022-07-26T19:07:24.471Z,101336.59
2022-07-26T19:09:57.842Z,101337.88
2022-07-26T19:12:26.946Z,101336.53
2022-07-26T19:14:54.939Z,101335.00
2022-07-26T19:17:24.380Z,101341.66
2022-07-26T19:19:52.616Z,101348.22
2022-07-26T19:22:23.068Z,101346.91
2022-07-26T19:24:51.317Z,101350.50
2022-07-26T19:27:19.929Z,101351.06
2022-07-26T19:29:48.702Z,101348.72
2022-07-26T19:32:16.846Z,101355.91
2022-07-26T19:34:46.250Z,101355.25
2022-07-26T19:37:19.751Z,101360.72
2022-07-26T19:39:48.560Z,101363.03
2022-07-26T19:42:18.362Z,101367.44
2022-07-26T19:44:47.215Z,101378.16
2022-07-26T19:47:15.323Z,101367.38
2022-07-26T19:49:43.546Z,101383.41
2022-07-26T19:52:12.912Z,101378.06
2022-07-26T19:54:41.226Z,101372.00
2022-07-26T19:57:09.320Z,101381.59
2022-07-26T19:59:37.360Z,101387.19
2022-07-26T20:02:05.808Z,101381.84
2022-07-26T20:04:33.949Z,101386.72
2022-07-26T20:07:01.895Z,101390.38
2022-07-26T20:09:31.592Z,101387.41
2022-07-26T20:12:00.736Z,101391.44
2022-07-26T20:14:28.776Z,101399.09
2022-07-26T20:16:58.252Z,101401.03
2022-07-26T20:19:28.082Z,101404.88
2022-07-26T20:21:56.304Z,101406.97
2022-07-26T20:24:24.372Z,101395.00
2022-07-26T20:26:54.159Z,101396.69
2022-07-26T20:29:22.412Z,101394.13
2022-07-26T20:31:50.723Z,101409.97
2022-07-26T20:34:18.941Z,101402.69
2022-07-26T20:36:47.389Z,101400.94
2022-07-26T20:39:15.881Z,101402.00
2022-07-26T20:41:43.958Z,101406.03
2022-07-26T20:44:14.783Z,101408.81
2022-07-26T20:46:42.760Z,101419.66
2022-07-26T20:49:11.344Z,101420.72
2022-07-26T20:51:39.823Z,101425.59
2022-07-26T20:54:08.675Z,101429.44
2022-07-26T20:56:37.193Z,101426.00
2022-07-26T20:59:05.733Z,101421.69
2022-07-26T21:01:35.432Z,101425.34
2022-07-26T21:04:03.599Z,101443.28
2022-07-26T21:06:33.190Z,101440.88
2022-07-26T21:09:08.861Z,101447.47
2022-07-26T21:11:38.549Z,101444.19
2022-07-26T21:14:06.808Z,101443.31
2022-07-26T21:16:36.557Z,101455.31
2022-07-26T21:19:05.923Z,101452.06
2022-07-26T21:21:37.016Z,101442.19
2022-07-26T21:24:06.727Z,101449.66
2022-07-26T21:26:35.222Z,101448.13
2022-07-26T21:29:03.382Z,101447.47
2022-07-26T21:31:31.658Z,101461.06
2022-07-26T21:34:01.239Z,101462.13
2022-07-26T21:36:29.436Z,101463.94
2022-07-26T21:38:59.173Z,101463.44
2022-07-26T21:41:27.127Z,101466.78
2022-07-26T21:43:55.187Z,101469.09
2022-07-26T21:46:23.217Z,101466.84
2022-07-26T21:48:51.387Z,101471.06
2022-07-26T21:51:20.883Z,101469.34
2022-07-26T21:53:48.987Z,101469.00
2022-07-26T21:56:17.251Z,101474.97
2022-07-26T21:58:45.353Z,101485.41
2022-07-26T22:01:15.526Z,101481.94
2022-07-26T22:03:44.225Z,101480.22
2022-07-26T22:06:13.050Z,101475.03
2022-07-26T22:08:42.506Z,101478.47
2022-07-26T22:11:10.672Z,101480.94
2022-07-26T22:13:38.873Z,101483.69
2022-07-26T22:16:08.239Z,101481.09
2022-07-26T22:18:36.257Z,101477.84
2022-07-26T22:21:04.862Z,101483.75
2022-07-26T22:23:33.466Z,101483.06
2022-07-26T22:26:04.705Z,101487.59
2022-07-26T22:28:34.405Z,101487.97
2022-07-26T22:31:02.575Z,101484.50
2022-07-26T22:33:30.646Z,101490.25
2022-07-26T22:35:58.620Z,101488.69
2022-07-26T22:38:26.617Z,101489.72
2022-07-26T22:40:54.648Z,101486.47
2022-07-26T22:43:24.240Z,101485.59
2022-07-26T22:45:52.244Z,101489.13
2022-07-26T22:48:20.311Z,101483.06
2022-07-26T22:50:48.383Z,101492.63
2022-07-26T22:53:16.430Z,101492.13
2022-07-26T22:55:44.396Z,101488.84
2022-07-26T22:58:12.464Z,101479.31
2022-07-26T23:00:42.275Z,101486.97
2022-07-26T23:03:20.048Z,101493.25
2022-07-26T23:05:50.372Z,101487.19
2022-07-26T23:11:08.299Z,101497.25
2022-07-26T23:13:36.287Z,101495.69
2022-07-26T23:16:06.502Z,101496.78
2022-07-26T23:18:35.217Z,101495.56
2022-07-26T23:21:04.204Z,101481.84
2022-07-26T23:23:32.646Z,101496.97
2022-07-26T23:26:01.084Z,101500.97
2022-07-26T23:28:37.094Z,101490.91
2022-07-26T23:31:11.901Z,101497.50
2022-07-26T23:33:53.534Z,101494.22
2022-07-26T23:36:26.247Z,101492.50
2022-07-26T23:38:55.147Z,101488.31
2022-07-26T23:41:23.480Z,101489.19
2022-07-26T23:43:51.983Z,101494.09
2022-07-26T23:46:21.713Z,101487.28
2022-07-26T23:48:50.477Z,101484.03
2022-07-26T23:51:19.500Z,101482.28
2022-07-26T23:53:48.343Z,101479.69
2022-07-26T23:56:16.896Z,101478.63
2022-07-26T23:58:45.572Z,101488.00
